createdAt,value
2022-10-05T00:01:47.331Z,94537.63
2022-10-05T00:04:16.903Z,94542.00
2022-10-05T00:06:45.952Z,94518.53
2022-10-05T00:09:19.053Z,94543.50
2022-10-05T00:11:46.233Z,94526.44
2022-10-05T00:14:27.727Z,94527.78
2022-10-05T00:16:55.638Z,94495.81
2022-10-05T00:19:30.973Z,94499.81
2022-10-05T00:22:19.699Z,94530.22
2022-10-05T00:24:48.101Z,94523.41
2022-10-05T00:27:21.412Z,94509.06
2022-10-05T00:30:20.035Z,94521.06
2022-10-05T00:32:47.074Z,94412.31
2022-10-05T00:35:15.391Z,94490.13
2022-10-05T00:37:42.097Z,94516.75
2022-10-05T00:40:17.358Z,94501.81
2022-10-05T00:43:06.836Z,94508.31
2022-10-05T00:45:42.999Z,94499.91
2022-10-05T00:48:37.096Z,94481.09
2022-10-05T00:51:20.882Z,94499.34
2022-10-05T00:54:20.695Z,94498.56
2022-10-05T00:57:05.483Z,94497.53
2022-10-05T00:59:53.145Z,94501.56
2022-10-05T01:02:36.499Z,94491.66
2022-10-05T01:05:15.769Z,94495.38
2022-10-05T01:07:58.717Z,94493.50
2022-10-05T01:11:01.335Z,94498.09
2022-10-05T01:13:53.435Z,94489.38
2022-10-05T01:16:31.318Z,94497.38
2022-10-05T01:18:57.714Z,94490.25
2022-10-05T01:21:32.176Z,94467.47
2022-10-05T01:24:22.366Z,94488.34
2022-10-05T01:27:10.325Z,94482.88
2022-10-05T01:30:06.501Z,94498.41
2022-10-05T01:33:01.150Z,94490.25
2022-10-05T01:35:53.847Z,94486.41
2022-10-05T01:38:32.617Z,94465.84
2022-10-05T01:41:19.767Z,94441.81
2022-10-05T01:43:52.353Z,94471.50
2022-10-05T01:46:30.619Z,94481.00
2022-10-05T01:49:04.131Z,94471.78
2022-10-05T01:51:33.505Z,94479.25
2022-10-05T01:54:28.101Z,94481.28
2022-10-05T01:57:00.802Z,94439.00
2022-10-05T02:00:12.525Z,94472.34
2022-10-05T02:02:48.309Z,94462.59
2022-10-05T02:05:28.805Z,94423.91
2022-10-05T02:08:01.841Z,94427.59
2022-10-05T02:10:37.352Z,94423.16
2022-10-05T02:13:13.093Z,94432.53
2022-10-05T02:15:46.227Z,94439.22
2022-10-05T02:18:19.727Z,94402.47
2022-10-05T02:20:47.777Z,94389.25
2022-10-05T02:23:26.966Z,94410.75
2022-10-05T02:25:56.249Z,94418.72
2022-10-05T02:28:29.476Z,94399.50
2022-10-05T02:31:06.044Z,94440.25
2022-10-05T02:33:33.810Z,94397.00
2022-10-05T02:36:18.506Z,94431.66
2022-10-05T02:39:16.072Z,94433.88
2022-10-05T02:41:48.659Z,94435.41
2022-10-05T02:44:40.592Z,94434.44
2022-10-05T02:47:18.197Z,94415.22
2022-10-05T02:49:58.146Z,94432.81
2022-10-05T02:53:18.381Z,94439.63
2022-10-05T02:56:07.139Z,94441.25
2022-10-05T02:58:53.375Z,94405.97
2022-10-05T03:01:32.204Z,94431.78
2022-10-05T03:04:12.697Z,94423.66
2022-10-05T03:06:51.585Z,94405.31
2022-10-05T03:09:22.590Z,94434.16
2022-10-05T03:12:27.473Z,94403.91
2022-10-05T03:15:25.207Z,94432.81
2022-10-05T03:18:11.190Z,94424.97
2022-10-05T03:20:37.694Z,94434.44
2022-10-05T03:23:09.648Z,94425.47
2022-10-05T03:25:54.355Z,94439.91
2022-10-05T03:28:32.332Z,94423.25
2022-10-05T03:31:13.095Z,94429.38
2022-10-05T03:33:43.607Z,94408.22
2022-10-05T03:36:26.445Z,94402.00
2022-10-05T03:39:08.039Z,94434.00
2022-10-05T03:42:09.035Z,94434.00
2022-10-05T03:44:56.815Z,94436.19
2022-10-05T03:47:39.319Z,94407.94
2022-10-05T03:50:44.670Z,94424.63
2022-10-05T03:53:18.215Z,94431.78
2022-10-05T03:55:53.693Z,94390.31
2022-10-05T03:58:52.981Z,94432.63
2022-10-05T04:01:25.349Z,94434.56
2022-10-05T04:03:57.861Z,94422.00
2022-10-05T04:06:27.925Z,94439.44
2022-10-05T04:09:01.272Z,94415.91
2022-10-05T04:11:38.066Z,94390.03
2022-10-05T04:14:07.131Z,94437.28
2022-10-05T04:16:51.441Z,94428.63
2022-10-05T04:19:22.181Z,94441.56
2022-10-05T04:22:25.310Z,94434.22
2022-10-05T04:25:17.870Z,94424.84
2022-10-05T04:27:55.126Z,94388.22
2022-10-05T04:30:44.808Z,94431.13
2022-10-05T04:33:13.622Z,94426.72
2022-10-05T04:36:11.741Z,94419.91
2022-10-05T04:39:03.674Z,94422.84
2022-10-05T04:42:00.384Z,94424.88
2022-10-05T04:45:11.499Z,94429.97
2022-10-05T04:48:08.357Z,94430.53
2022-10-05T04:50:48.949Z,94431.69
2022-10-05T04:53:30.437Z,94371.34
2022-10-05T04:56:07.995Z,94392.81
2022-10-05T04:59:02.681Z,94430.84
2022-10-05T05:02:04.285Z,94433.00
2022-10-05T05:04:52.253Z,94418.66
2022-10-05T05:08:06.984Z,94431.13
2022-10-05T05:10:58.069Z,94431.88
2022-10-05T05:14:05.324Z,94436.53
2022-10-05T05:16:37.584Z,94420.25
2022-10-05T05:19:25.472Z,94439.78
2022-10-05T05:21:56.859Z,94379.09
2022-10-05T05:24:33.216Z,94398.28
2022-10-05T05:27:02.579Z,94436.66
2022-10-05T05:29:38.003Z,94444.47
2022-10-05T05:32:12.969Z,94443.06
2022-10-05T05:34:54.614Z,94450.25
2022-10-05T05:37:56.525Z,94433.19
2022-10-05T05:40:32.001Z,94403.72
2022-10-05T05:43:15.253Z,94437.91
2022-10-05T05:45:45.943Z,94438.03
2022-10-05T05:48:21.513Z,94456.66
2022-10-05T05:50:58.283Z,94460.31
2022-10-05T05:53:39.919Z,94458.50
2022-10-05T05:56:14.842Z,94456.00
2022-10-05T05:59:06.430Z,94427.47
2022-10-05T06:01:43.587Z,94443.47
2022-10-05T06:04:19.081Z,94446.72
2022-10-05T06:06:51.857Z,94463.44
2022-10-05T06:09:51.241Z,94456.09
2022-10-05T06:12:29.534Z,94434.13
2022-10-05T06:15:05.310Z,94465.69
2022-10-05T06:17:48.032Z,94423.03
2022-10-05T06:20:43.422Z,94460.38
2022-10-05T06:23:16.887Z,94437.00
2022-10-05T06:26:10.988Z,94422.63
2022-10-05T06:28:37.936Z,94416.13
2022-10-05T06:31:15.192Z,94462.38
2022-10-05T06:33:52.137Z,94464.72
2022-10-05T06:36:27.165Z,94465.13
2022-10-05T06:39:10.837Z,94442.47
2022-10-05T06:42:05.182Z,94462.22
2022-10-05T06:44:43.586Z,94454.31
2022-10-05T06:47:28.138Z,94459.59
2022-10-05T06:50:16.708Z,94464.19
2022-10-05T06:52:52.315Z,94470.22
2022-10-05T06:55:44.477Z,94402.81
2022-10-05T06:58:36.721Z,94455.81
2022-10-05T07:01:04.829Z,94443.50
2022-10-05T07:03:41.449Z,94464.28
2022-10-05T07:06:21.262Z,94450.00
2022-10-05T07:09:09.231Z,94486.84
2022-10-05T07:12:13.271Z,94489.25
2022-10-05T07:14:58.709Z,94488.06
2022-10-05T07:17:53.027Z,94467.72
2022-10-05T07:20:48.337Z,94483.25
2022-10-05T07:23:30.898Z,94492.88
2022-10-05T07:26:06.665Z,94496.84
2022-10-05T07:28:52.362Z,94494.31
2022-10-05T07:31:49.174Z,94496.06
2022-10-05T07:34:26.461Z,94476.34
2022-10-05T07:37:20.272Z,94483.44
2022-10-05T07:40:18.044Z,94481.34
2022-10-05T07:42:52.329Z,94497.09
2022-10-05T07:45:33.834Z,94460.38
2022-10-05T07:48:21.064Z,94495.72
2022-10-05T07:51:06.475Z,94496.34
2022-10-05T07:53:36.755Z,94505.06
2022-10-05T07:56:16.183Z,94470.50
2022-10-05T07:59:01.630Z,94504.84
2022-10-05T08:01:31.745Z,94510.44
2022-10-05T08:04:10.250Z,94516.34
2022-10-05T08:06:54.071Z,94513.50
2022-10-05T08:09:36.310Z,94502.56
2022-10-05T08:12:30.907Z,94508.56
2022-10-05T08:15:20.495Z,94498.06
2022-10-05T08:18:05.550Z,94509.97
2022-10-05T08:21:01.575Z,94503.13
2022-10-05T08:23:33.859Z,94511.72
2022-10-05T08:26:14.964Z,94495.25
2022-10-05T08:28:46.982Z,94517.97
2022-10-05T08:31:27.014Z,94485.25
2022-10-05T08:34:31.750Z,94514.44
2022-10-05T08:37:06.978Z,94505.97
2022-10-05T08:39:49.918Z,94519.34
2022-10-05T08:42:25.377Z,94525.41
2022-10-05T08:45:00.087Z,94500.38
2022-10-05T08:47:38.626Z,94525.25
2022-10-05T08:50:46.875Z,94510.88
2022-10-05T08:53:20.544Z,94525.03
2022-10-05T08:56:32.190Z,94518.97
2022-10-05T08:59:18.040Z,94522.22
2022-10-05T09:01:58.570Z,94488.63
2022-10-05T09:04:40.051Z,94522.97
2022-10-05T09:07:18.553Z,94529.41
2022-10-05T09:09:51.034Z,94524.50
2022-10-05T09:12:51.474Z,94523.16
2022-10-05T09:15:33.654Z,94530.03
2022-10-05T09:18:14.099Z,94501.59
2022-10-05T09:20:55.214Z,94523.56
2022-10-05T09:23:42.787Z,94521.88
2022-10-05T09:26:40.368Z,94513.44
2022-10-05T09:29:22.027Z,94512.47
2022-10-05T09:32:10.787Z,94516.91
2022-10-05T09:35:15.034Z,94519.41
2022-10-05T09:37:44.598Z,94508.00
2022-10-05T09:40:29.779Z,94465.66
2022-10-05T09:43:22.924Z,94511.69
2022-10-05T09:45:55.603Z,94504.75
2022-10-05T09:48:40.878Z,94497.69
2022-10-05T09:51:46.325Z,94497.97
2022-10-05T09:54:34.861Z,94483.97
2022-10-05T09:57:42.253Z,94503.75
2022-10-05T10:00:21.892Z,94471.19
2022-10-05T10:03:16.101Z,94493.97
2022-10-05T10:06:05.403Z,94493.09
2022-10-05T10:08:57.988Z,94494.00
2022-10-05T10:12:02.362Z,94494.22
2022-10-05T10:14:49.485Z,94494.69
2022-10-05T10:17:18.753Z,94490.44
2022-10-05T10:20:23.597Z,94480.97
2022-10-05T10:23:14.073Z,94460.91
2022-10-05T10:26:15.890Z,94488.78
2022-10-05T10:29:00.457Z,94489.44
2022-10-05T10:31:39.095Z,94485.66
2022-10-05T10:34:42.703Z,94499.16
2022-10-05T10:37:34.359Z,94486.72
2022-10-05T10:40:35.004Z,94489.53
2022-10-05T10:43:07.486Z,94478.41
2022-10-05T10:46:09.317Z,94485.38
2022-10-05T10:48:51.325Z,94464.84
2022-10-05T10:51:43.069Z,94491.78
2022-10-05T10:54:23.298Z,94492.09
2022-10-05T10:57:11.400Z,94494.28
2022-10-05T10:59:43.782Z,94491.56
2022-10-05T11:02:37.387Z,94492.25
2022-10-05T11:05:36.142Z,94481.63
2022-10-05T11:08:18.295Z,94487.53
2022-10-05T11:10:59.885Z,94478.28
2022-10-05T11:14:02.957Z,94480.16
2022-10-05T11:16:57.312Z,94449.78
2022-10-05T11:19:59.609Z,94478.50
2022-10-05T11:22:50.228Z,94479.38
2022-10-05T11:25:27.682Z,94462.91
2022-10-05T11:27:55.115Z,94477.16
2022-10-05T11:30:40.055Z,94459.56
2022-10-05T11:33:37.519Z,94472.28
2022-10-05T11:36:03.794Z,94463.88
2022-10-05T11:38:49.447Z,94464.03
2022-10-05T11:41:53.543Z,94454.16
2022-10-05T11:44:29.270Z,94461.94
2022-10-05T11:47:21.578Z,94451.75
2022-10-05T11:50:20.343Z,94462.31
2022-10-05T11:53:01.691Z,94430.69
2022-10-05T11:55:37.366Z,94443.38
2022-10-05T11:58:24.077Z,94438.13
2022-10-05T12:00:59.834Z,94399.25
2022-10-05T12:03:43.237Z,94441.38
2022-10-05T12:06:25.587Z,94414.47
2022-10-05T12:09:30.673Z,94434.22
2022-10-05T12:12:22.971Z,94427.72
2022-10-05T12:15:12.059Z,94419.94
2022-10-05T12:17:58.189Z,94407.25
2022-10-05T12:20:38.841Z,94398.66
2022-10-05T12:23:21.174Z,94423.25
2022-10-05T12:25:56.650Z,94433.22
2022-10-05T12:28:33.076Z,94414.69
2022-10-05T12:31:15.525Z,94400.56
2022-10-05T12:33:50.955Z,94430.91
2022-10-05T12:36:19.653Z,94382.00
2022-10-05T12:39:05.122Z,94413.47
2022-10-05T12:41:49.711Z,94421.63
2022-10-05T12:44:18.913Z,94417.97
2022-10-05T12:46:54.691Z,94417.78
2022-10-05T12:49:21.020Z,94415.09
2022-10-05T12:52:06.399Z,94414.53
2022-10-05T12:54:53.545Z,94418.03
2022-10-05T12:57:37.419Z,94389.03
2022-10-05T13:00:10.034Z,94392.91
2022-10-05T13:02:46.847Z,94409.06
2022-10-05T13:05:23.502Z,94398.38
2022-10-05T13:08:01.740Z,94399.63
2022-10-05T13:10:35.255Z,94398.81
2022-10-05T13:13:01.565Z,94403.31
2022-10-05T13:15:49.875Z,94396.44
2022-10-05T13:18:54.304Z,94404.28
2022-10-05T13:21:26.880Z,94376.81
2022-10-05T13:24:29.916Z,94380.78
2022-10-05T13:27:08.408Z,94370.47
2022-10-05T13:29:51.046Z,94381.50
2022-10-05T13:32:25.211Z,94390.28
2022-10-05T13:35:02.610Z,94372.91
2022-10-05T13:37:39.326Z,94381.72
2022-10-05T13:40:33.674Z,94376.94
2022-10-05T13:43:06.154Z,94397.63
2022-10-05T13:45:51.213Z,94385.91
2022-10-05T13:48:20.558Z,94389.63
2022-10-05T13:51:05.249Z,94384.88
2022-10-05T13:53:55.988Z,94357.66
2022-10-05T13:56:33.437Z,94392.38
2022-10-05T13:59:25.130Z,94383.38
2022-10-05T14:02:06.818Z,94370.22
2022-10-05T14:04:47.904Z,94396.63
2022-10-05T14:07:31.128Z,94390.28
2022-10-05T14:09:59.546Z,94373.69
2022-10-05T14:12:27.367Z,94388.13
2022-10-05T14:14:56.898Z,94391.81
2022-10-05T14:17:43.777Z,94387.03
2022-10-05T14:20:36.440Z,94385.84
2022-10-05T14:23:18.520Z,94395.25
2022-10-05T14:25:53.911Z,94387.59
2022-10-05T14:28:33.715Z,94397.13
2022-10-05T14:31:05.963Z,94384.00
2022-10-05T14:33:36.251Z,94384.00
2022-10-05T14:36:03.902Z,94385.97
2022-10-05T14:38:49.630Z,94401.78
2022-10-05T14:41:27.259Z,94406.19
2022-10-05T14:44:13.197Z,94394.91
2022-10-05T14:46:52.155Z,94377.69
2022-10-05T14:49:29.047Z,94374.38
2022-10-05T14:51:56.911Z,94382.72
2022-10-05T14:54:32.443Z,94385.34
2022-10-05T14:57:14.105Z,94395.34
2022-10-05T14:59:47.945Z,94359.19
2022-10-05T15:02:53.159Z,94383.31
2022-10-05T15:05:31.592Z,94371.88
2022-10-05T15:08:20.965Z,94387.31
2022-10-05T15:10:50.235Z,94391.94
2022-10-05T15:13:24.067Z,94387.56
2022-10-05T15:15:56.519Z,94363.47
2022-10-05T15:18:39.481Z,94381.44
2022-10-05T15:21:48.601Z,94389.03
2022-10-05T15:24:17.977Z,94382.00
2022-10-05T15:26:54.455Z,94387.03
2022-10-05T15:29:36.180Z,94381.50
2022-10-05T15:32:30.149Z,94382.56
2022-10-05T15:35:10.708Z,94368.63
2022-10-05T15:37:47.599Z,94360.00
2022-10-05T15:40:50.855Z,94389.56
2022-10-05T15:43:20.921Z,94396.22
2022-10-05T15:46:10.240Z,94399.56
2022-10-05T15:48:54.017Z,94378.19
2022-10-05T15:51:45.143Z,94367.94
2022-10-05T15:54:42.984Z,94383.97
2022-10-05T15:57:32.668Z,94391.03
2022-10-05T16:00:11.905Z,94392.47
2022-10-05T16:02:48.146Z,94409.31
2022-10-05T16:05:43.765Z,94405.78
2022-10-05T16:08:51.421Z,94389.50
2022-10-05T16:11:25.259Z,94385.06
2022-10-05T16:14:15.457Z,94409.56
2022-10-05T16:16:58.952Z,94396.19
2022-10-05T16:19:34.609Z,94419.59
2022-10-05T16:22:47.303Z,94424.16
2022-10-05T16:25:22.163Z,94424.06
2022-10-05T16:28:05.192Z,94406.34
2022-10-05T16:30:42.184Z,94401.03
2022-10-05T16:33:14.182Z,94417.16
2022-10-05T16:35:53.810Z,94420.19
2022-10-05T16:38:53.631Z,94419.75
2022-10-05T16:41:24.764Z,94401.19
2022-10-05T16:44:01.691Z,94399.72
2022-10-05T16:46:59.388Z,94430.03
2022-10-05T16:50:10.880Z,94430.72
2022-10-05T16:52:40.085Z,94434.88
2022-10-05T16:55:14.016Z,94425.56
2022-10-05T16:57:48.484Z,94414.03
2022-10-05T17:00:18.266Z,94417.19
2022-10-05T17:03:30.062Z,94448.19
2022-10-05T17:06:16.501Z,94438.31
2022-10-05T17:09:18.298Z,94454.94
2022-10-05T17:11:57.699Z,94449.31
2022-10-05T17:14:53.830Z,94446.50
2022-10-05T17:17:43.149Z,94457.91
2022-10-05T17:20:17.409Z,94430.66
2022-10-05T17:23:02.086Z,94445.41
2022-10-05T17:25:44.665Z,94473.69
2022-10-05T17:28:37.629Z,94470.66
2022-10-05T17:31:21.853Z,94472.09
2022-10-05T17:34:16.832Z,94480.38
2022-10-05T17:36:51.173Z,94455.97
2022-10-05T17:39:22.605Z,94483.41
2022-10-05T17:41:49.646Z,94476.13
2022-10-05T17:44:24.804Z,94497.97
2022-10-05T17:46:57.135Z,94497.97
2022-10-05T17:50:17.635Z,94497.50
2022-10-05T17:53:03.790Z,94507.59
2022-10-05T17:55:33.927Z,94511.28
2022-10-05T17:58:23.391Z,94516.84
2022-10-05T18:00:59.809Z,94512.38
2022-10-05T18:03:49.396Z,94439.09
2022-10-05T18:06:28.365Z,94530.50
2022-10-05T18:09:20.915Z,94531.97
2022-10-05T18:12:08.986Z,94537.56
2022-10-05T18:14:57.301Z,94536.78
2022-10-05T18:17:46.384Z,94519.03
2022-10-05T18:20:28.428Z,94537.47
2022-10-05T18:23:10.135Z,94537.56
2022-10-05T18:26:09.058Z,94542.47
2022-10-05T18:28:46.505Z,94515.25
2022-10-05T18:31:18.854Z,94546.81
2022-10-05T18:34:07.618Z,94554.97
2022-10-05T18:36:56.470Z,94566.47
2022-10-05T18:39:40.526Z,94564.75
2022-10-05T18:42:36.061Z,94570.56
2022-10-05T18:45:39.530Z,94566.25
2022-10-05T18:48:35.453Z,94562.44
2022-10-05T18:51:32.878Z,94570.78
2022-10-05T18:54:36.989Z,94574.91
2022-10-05T18:57:35.832Z,94577.28
2022-10-05T19:00:11.239Z,94579.28
2022-10-05T19:03:03.641Z,94574.16
2022-10-05T19:05:47.439Z,94585.50
2022-10-05T19:08:36.197Z,94546.81
2022-10-05T19:11:24.143Z,94583.19
2022-10-05T19:14:05.440Z,94600.94
2022-10-05T19:16:51.522Z,94564.28
2022-10-05T19:19:44.292Z,94595.66
2022-10-05T19:22:31.685Z,94592.41
2022-10-05T19:25:23.107Z,94593.06
2022-10-05T19:28:15.255Z,94596.25
2022-10-05T19:30:56.897Z,94600.47
2022-10-05T19:33:42.235Z,94603.47
2022-10-05T19:36:29.258Z,94602.38
2022-10-05T19:39:06.701Z,94611.03
2022-10-05T19:42:05.076Z,94608.97
2022-10-05T19:44:53.358Z,94613.75
2022-10-05T19:47:25.761Z,94615.78
2022-10-05T19:49:52.125Z,94622.72
2022-10-05T19:52:22.155Z,94623.44
2022-10-05T19:55:02.085Z,94582.66
2022-10-05T19:57:28.740Z,94619.66
2022-10-05T19:59:58.257Z,94618.91
2022-10-05T20:02:28.884Z,94617.81
2022-10-05T20:05:06.530Z,94634.84
2022-10-05T20:07:34.385Z,94623.16
2022-10-05T20:10:29.113Z,94639.75
2022-10-05T20:12:58.752Z,94619.56
2022-10-05T20:15:45.344Z,94653.19
2022-10-05T20:19:01.609Z,94648.44
2022-10-05T20:21:50.362Z,94652.91
2022-10-05T20:24:18.314Z,94631.06
2022-10-05T20:27:04.854Z,94660.63
2022-10-05T20:29:32.561Z,94663.75
2022-10-05T20:32:00.250Z,94667.34
2022-10-05T20:34:31.817Z,94648.44
2022-10-05T20:36:58.606Z,94666.41
2022-10-05T20:39:24.986Z,94650.41
2022-10-05T20:41:51.475Z,94670.16
2022-10-05T20:44:17.874Z,94674.94
2022-10-05T20:46:46.269Z,94685.81
2022-10-05T20:49:13.034Z,94674.06
2022-10-05T20:51:40.178Z,94700.06
2022-10-05T20:54:08.045Z,94695.44
2022-10-05T20:56:34.952Z,94692.41
2022-10-05T20:59:01.395Z,94692.03
2022-10-05T21:01:28.917Z,94696.56
2022-10-05T21:03:55.833Z,94663.38
2022-10-05T21:06:22.514Z,94705.19
2022-10-05T21:08:51.331Z,94692.13
2022-10-05T21:11:17.796Z,94682.47
2022-10-05T21:13:46.367Z,94692.31
2022-10-05T21:16:18.629Z,94698.31
2022-10-05T21:18:47.481Z,94719.22
2022-10-05T21:21:15.394Z,94720.53
2022-10-05T21:23:41.947Z,94707.31
2022-10-05T21:26:08.467Z,94690.88
2022-10-05T21:28:34.929Z,94696.06
2022-10-05T21:31:01.461Z,94712.69
2022-10-05T21:33:28.279Z,94700.25
2022-10-05T21:35:54.864Z,94725.69
2022-10-05T21:38:21.460Z,94722.66
2022-10-05T21:40:47.881Z,94706.97
2022-10-05T21:43:14.403Z,94729.41
2022-10-05T21:45:42.851Z,94698.69
2022-10-05T21:48:10.025Z,94729.78
2022-10-05T21:50:37.834Z,94733.59
2022-10-05T21:53:06.497Z,94738.94
2022-10-05T21:55:35.783Z,94703.53
2022-10-05T21:58:03.578Z,94725.34
2022-10-05T22:00:30.615Z,94721.59
2022-10-05T22:02:57.030Z,94737.09
2022-10-05T22:05:23.458Z,94732.00
2022-10-05T22:07:49.937Z,94739.31
2022-10-05T22:10:16.452Z,94741.19
2022-10-05T22:12:42.889Z,94735.47
2022-10-05T22:15:09.688Z,94677.28
2022-10-05T22:17:36.345Z,94750.34
2022-10-05T22:20:03.639Z,94738.31
2022-10-05T22:22:30.102Z,94763.34
2022-10-05T22:24:56.643Z,94751.56
2022-10-05T22:27:24.711Z,94781.63
2022-10-05T22:29:51.624Z,94757.22
2022-10-05T22:32:18.178Z,94761.16
2022-10-05T22:34:44.959Z,94777.16
2022-10-05T22:37:15.862Z,94788.88
2022-10-05T22:39:43.017Z,94792.28
2022-10-05T22:42:09.802Z,94788.56
2022-10-05T22:44:36.350Z,94783.81
2022-10-05T22:47:03.886Z,94802.53
2022-10-05T22:49:30.267Z,94786.56
2022-10-05T22:51:56.680Z,94781.38
2022-10-05T22:54:31.058Z,94774.53
2022-10-05T22:56:59.751Z,94771.28
2022-10-05T22:59:26.144Z,94764.06
2022-10-05T23:01:52.749Z,94771.28
2022-10-05T23:04:19.289Z,94775.66
2022-10-05T23:06:45.690Z,94785.31
2022-10-05T23:09:12.090Z,94785.59
2022-10-05T23:11:38.507Z,94782.03
2022-10-05T23:14:04.957Z,94805.50
2022-10-05T23:16:31.703Z,94805.44
2022-10-05T23:18:59.066Z,94810.53
2022-10-05T23:21:28.844Z,94784.63
2022-10-05T23:23:55.273Z,94796.66
2022-10-05T23:26:24.139Z,94815.56
2022-10-05T23:28:51.056Z,94829.56
2022-10-05T23:31:27.098Z,94812.94
2022-10-05T23:33:53.577Z,94813.75
2022-10-05T23:36:22.532Z,94815.88
2022-10-05T23:38:49.454Z,94789.88
2022-10-05T23:41:16.270Z,94790.50
2022-10-05T23:43:43.610Z,94830.53
2022-10-05T23:46:10.406Z,94837.72
2022-10-05T23:48:39.714Z,94828.78
2022-10-05T23:51:08.858Z,94812.97
2022-10-05T23:53:35.535Z,94807.75
2022-10-05T23:56:02.397Z,94846.19
2022-10-05T23:58:29.146Z,94815.25
